createdAt,value
2022-10-17T00:00:24.463Z,10
2022-10-17T00:01:24.450Z,14
2022-10-17T00:02:24.464Z,7
2022-10-17T00:03:24.465Z,10
2022-10-17T00:04:24.464Z,7
2022-10-17T00:05:24.451Z,9
2022-10-17T00:06:24.465Z,10
2022-10-17T00:07:24.466Z,7
2022-10-17T00:08:24.452Z,11
2022-10-17T00:09:24.453Z,8
2022-10-17T00:10:24.466Z,7
2022-10-17T00:11:24.467Z,17
2022-10-17T00:12:24.454Z,9
2022-10-17T00:13:24.493Z,14
2022-10-17T00:14:24.467Z,10
2022-10-17T00:15:24.467Z,12
2022-10-17T00:16:24.455Z,14
2022-10-17T00:17:24.468Z,13
2022-10-17T00:18:24.468Z,13
2022-10-17T00:19:24.469Z,13
2022-10-17T00:20:24.456Z,11
2022-10-17T00:21:24.469Z,12
2022-10-17T00:22:24.470Z,11
2022-10-17T00:23:24.470Z,13
2022-10-17T00:24:24.457Z,12
2022-10-17T00:25:24.472Z,13
2022-10-17T00:26:24.471Z,9
2022-10-17T00:27:24.458Z,8
2022-10-17T00:28:24.458Z,9
2022-10-17T00:29:24.472Z,11
2022-10-17T00:30:24.473Z,10
2022-10-17T00:31:24.459Z,10
2022-10-17T00:32:24.473Z,9
2022-10-17T00:34:24.473Z,10
2022-10-17T00:35:24.461Z,11
2022-10-17T00:36:24.474Z,10
2022-10-17T00:37:24.478Z,13
2022-10-17T00:38:24.475Z,11
2022-10-17T00:39:24.462Z,10
2022-10-17T00:40:24.475Z,12
2022-10-17T00:41:24.476Z,8
2022-10-17T00:42:24.476Z,6
2022-10-17T00:43:24.463Z,10
2022-10-17T00:44:24.476Z,10
2022-10-17T00:45:24.478Z,12
2022-10-17T00:46:24.464Z,12
2022-10-17T00:47:24.464Z,13
2022-10-17T00:48:24.478Z,11
2022-10-17T00:49:24.518Z,10
2022-10-17T00:50:24.465Z,11
2022-10-17T00:51:24.478Z,9
2022-10-17T00:52:24.479Z,16
2022-10-17T00:53:24.479Z,11
2022-10-17T00:54:24.466Z,9
2022-10-17T00:55:24.480Z,12
2022-10-17T00:56:24.532Z,12
2022-10-17T00:57:24.480Z,12
2022-10-17T00:58:24.467Z,13
2022-10-17T00:59:24.481Z,13
2022-10-17T01:00:24.482Z,10
2022-10-17T01:01:24.481Z,13
2022-10-17T01:02:24.469Z,11
2022-10-17T01:03:24.482Z,15
2022-10-17T01:04:24.483Z,10
2022-10-17T01:05:24.469Z,8
2022-10-17T01:06:24.470Z,9
2022-10-17T01:07:24.483Z,8
2022-10-17T01:08:24.484Z,10
2022-10-17T01:09:24.471Z,13
2022-10-17T01:10:24.484Z,10
2022-10-17T01:11:24.484Z,10
2022-10-17T01:12:24.485Z,10
2022-10-17T01:13:24.472Z,5
2022-10-17T01:14:24.485Z,10
2022-10-17T01:15:24.489Z,8
2022-10-17T01:16:24.486Z,13
2022-10-17T01:17:24.473Z,12
2022-10-17T01:18:24.486Z,14
2022-10-17T01:19:24.487Z,11
2022-10-17T01:20:24.487Z,10
2022-10-17T01:21:24.474Z,11
2022-10-17T01:22:24.488Z,10
2022-10-17T01:23:24.488Z,12
2022-10-17T01:24:24.475Z,12
2022-10-17T01:25:24.475Z,12
2022-10-17T01:26:24.489Z,15
2022-10-17T01:27:24.490Z,8
2022-10-17T01:28:24.476Z,10
2022-10-17T01:29:24.490Z,11
2022-10-17T01:30:24.490Z,8
2022-10-17T01:31:24.490Z,7
2022-10-17T01:32:24.477Z,10
2022-10-17T01:33:24.491Z,9
2022-10-17T01:34:24.492Z,10
2022-10-17T01:35:24.491Z,9
2022-10-17T01:36:24.479Z,13
2022-10-17T01:37:24.492Z,11
2022-10-17T01:38:24.493Z,14
2022-10-17T01:39:24.479Z,12
2022-10-17T01:40:24.480Z,10
2022-10-17T01:41:24.493Z,10
2022-10-17T01:42:24.494Z,8
2022-10-17T01:43:24.481Z,4
2022-10-17T01:44:24.481Z,8
2022-10-17T01:45:24.495Z,13
2022-10-17T01:46:24.495Z,12
2022-10-17T01:47:24.482Z,7
2022-10-17T01:48:24.495Z,13
2022-10-17T01:49:24.496Z,13
2022-10-17T01:50:24.496Z,7
2022-10-17T01:51:24.483Z,10
2022-10-17T01:52:24.496Z,13
2022-10-17T01:53:24.497Z,9
2022-10-17T01:54:24.497Z,9
2022-10-17T01:55:24.484Z,9
2022-10-17T01:56:24.498Z,9
2022-10-17T01:57:24.498Z,11
2022-10-17T01:58:24.485Z,7
2022-10-17T01:59:24.485Z,8
2022-10-17T02:00:24.499Z,10
2022-10-17T02:01:24.499Z,9
2022-10-17T02:02:24.486Z,10
2022-10-17T02:03:24.541Z,13
2022-10-17T02:04:24.500Z,7
2022-10-17T02:05:24.500Z,9
2022-10-17T02:06:24.487Z,8
2022-10-17T02:07:24.501Z,6
2022-10-17T02:08:24.501Z,12
2022-10-17T02:09:24.501Z,8
2022-10-17T02:10:24.489Z,6
2022-10-17T02:11:24.502Z,10
2022-10-17T02:12:24.503Z,8
2022-10-17T02:13:24.502Z,9
2022-10-17T02:14:24.490Z,10
2022-10-17T02:15:24.553Z,8
2022-10-17T02:16:24.504Z,6
2022-10-17T02:17:24.490Z,11
2022-10-17T02:18:24.491Z,11
2022-10-17T02:19:24.504Z,7
2022-10-17T02:20:24.505Z,7
2022-10-17T02:21:24.492Z,8
2022-10-17T02:22:24.505Z,9
2022-10-17T02:23:24.505Z,8
2022-10-17T02:24:24.506Z,9
2022-10-17T02:25:24.493Z,8
2022-10-17T02:26:24.506Z,9
2022-10-17T02:27:24.559Z,7
2022-10-17T02:28:24.507Z,7
2022-10-17T02:29:24.494Z,7
2022-10-17T02:30:24.507Z,9
2022-10-17T02:31:24.508Z,13
2022-10-17T02:32:24.508Z,9
2022-10-17T02:33:24.495Z,11
2022-10-17T02:34:24.534Z,14
2022-10-17T02:35:24.509Z,6
2022-10-17T02:36:24.496Z,14
2022-10-17T02:37:24.496Z,8
2022-10-17T02:38:24.510Z,13
2022-10-17T02:39:24.510Z,13
2022-10-17T02:40:24.497Z,8
2022-10-17T02:41:24.510Z,8
2022-10-17T02:42:24.511Z,7
2022-10-17T02:43:24.511Z,11
2022-10-17T02:44:24.498Z,6
2022-10-17T02:45:24.512Z,8
2022-10-17T02:46:24.564Z,13
2022-10-17T02:47:24.512Z,9
2022-10-17T02:48:24.499Z,8
2022-10-17T02:49:24.513Z,7
2022-10-17T02:50:24.514Z,10
2022-10-17T02:51:24.513Z,9
2022-10-17T02:52:24.500Z,13
2022-10-17T02:53:24.514Z,8
2022-10-17T02:54:24.515Z,11
2022-10-17T02:55:24.501Z,11
2022-10-17T02:56:24.502Z,12
2022-10-17T02:57:24.515Z,7
2022-10-17T02:58:24.516Z,11
2022-10-17T02:59:24.502Z,8
2022-10-17T03:00:24.516Z,12
2022-10-17T03:01:24.516Z,11
2022-10-17T03:02:24.516Z,9
2022-10-17T03:03:24.504Z,8
2022-10-17T03:04:24.517Z,13
2022-10-17T03:05:24.518Z,11
2022-10-17T03:06:24.517Z,12
2022-10-17T03:07:24.505Z,12
2022-10-17T03:08:24.518Z,8
2022-10-17T03:09:24.519Z,13
2022-10-17T03:10:24.505Z,14
2022-10-17T03:11:24.506Z,10
2022-10-17T03:12:24.519Z,7
2022-10-17T03:13:24.520Z,13
2022-10-17T03:14:24.507Z,10
2022-10-17T03:15:24.507Z,12
2022-10-17T03:16:24.520Z,8
2022-10-17T03:17:24.521Z,11
2022-10-17T03:18:24.508Z,13
2022-10-17T03:19:24.521Z,13
2022-10-17T03:20:24.521Z,7
2022-10-17T03:21:24.522Z,10
2022-10-17T03:22:24.509Z,10
2022-10-17T03:23:24.522Z,13
2022-10-17T03:24:24.523Z,9
2022-10-17T03:25:24.523Z,10
2022-10-17T03:26:24.510Z,11
2022-10-17T03:27:24.523Z,9
2022-10-17T03:28:24.524Z,11
2022-10-17T03:29:24.511Z,9
2022-10-17T03:30:24.511Z,10
2022-10-17T03:31:24.524Z,7
2022-10-17T03:32:24.525Z,12
2022-10-17T03:33:24.512Z,9
2022-10-17T03:34:24.512Z,10
2022-10-17T03:35:24.525Z,12
2022-10-17T03:36:24.526Z,8
2022-10-17T03:37:24.513Z,10
2022-10-17T03:38:24.526Z,7
2022-10-17T03:39:24.527Z,10
2022-10-17T03:40:24.527Z,11
2022-10-17T03:41:24.514Z,12
2022-10-17T03:42:24.527Z,12
2022-10-17T03:43:24.528Z,11
2022-10-17T03:44:24.528Z,6
2022-10-17T03:45:24.515Z,11
2022-10-17T03:46:24.528Z,5
2022-10-17T03:47:24.529Z,6
2022-10-17T03:48:24.516Z,10
2022-10-17T03:49:24.516Z,10
2022-10-17T03:50:24.530Z,13
2022-10-17T03:51:24.530Z,5
2022-10-17T03:52:24.517Z,12
2022-10-17T03:53:24.595Z,11
2022-10-17T03:54:24.531Z,9
2022-10-17T03:55:24.531Z,12
2022-10-17T03:56:24.518Z,10
2022-10-17T03:57:24.531Z,9
2022-10-17T03:58:24.532Z,10
2022-10-17T03:59:24.532Z,10
2022-10-17T04:00:24.519Z,7
2022-10-17T04:01:24.533Z,4
2022-10-17T04:02:24.533Z,13
2022-10-17T04:03:24.533Z,5
2022-10-17T04:04:24.520Z,10
2022-10-17T04:05:24.583Z,11
2022-10-17T04:06:24.534Z,7
2022-10-17T04:07:24.521Z,6
2022-10-17T04:08:24.521Z,8
2022-10-17T04:09:24.535Z,8
2022-10-17T04:10:24.535Z,8
2022-10-17T04:11:24.522Z,8
2022-10-17T04:12:24.537Z,10
2022-10-17T04:13:24.536Z,7
2022-10-17T04:14:24.536Z,8
2022-10-17T04:15:24.523Z,12
2022-10-17T04:16:24.537Z,8
2022-10-17T04:17:24.537Z,11
2022-10-17T04:18:24.537Z,9
2022-10-17T04:19:24.524Z,11
2022-10-17T04:20:24.538Z,8
2022-10-17T04:21:24.538Z,8
2022-10-17T04:22:24.538Z,9
2022-10-17T04:23:24.525Z,10
2022-10-17T04:24:24.540Z,8
2022-10-17T04:25:24.540Z,5
2022-10-17T04:26:24.526Z,9
2022-10-17T04:27:24.526Z,11
2022-10-17T04:28:24.540Z,10
2022-10-17T04:29:24.541Z,8
2022-10-17T04:30:24.527Z,8
2022-10-17T04:31:24.541Z,8
2022-10-17T04:32:24.541Z,6
2022-10-17T04:33:24.541Z,10
2022-10-17T04:34:24.528Z,7
2022-10-17T04:35:24.542Z,9
2022-10-17T04:36:24.547Z,7
2022-10-17T04:37:24.542Z,8
2022-10-17T04:38:24.529Z,5
2022-10-17T04:39:24.543Z,8
2022-10-17T04:40:24.544Z,9
2022-10-17T04:41:24.543Z,7
2022-10-17T04:42:24.531Z,7
2022-10-17T04:43:24.544Z,7
2022-10-17T04:44:24.545Z,10
2022-10-17T04:45:24.531Z,8
2022-10-17T04:46:24.531Z,9
2022-10-17T04:47:24.545Z,8
2022-10-17T04:48:24.546Z,5
2022-10-17T04:49:24.532Z,7
2022-10-17T04:50:24.546Z,7
2022-10-17T04:51:24.546Z,6
2022-10-17T04:52:24.546Z,7
2022-10-17T04:53:24.533Z,8
2022-10-17T04:54:24.547Z,4
2022-10-17T04:55:24.548Z,10
2022-10-17T04:56:24.547Z,9
2022-10-17T04:57:24.534Z,9
2022-10-17T04:58:24.548Z,6
2022-10-17T04:59:24.549Z,9
2022-10-17T05:00:24.535Z,11
2022-10-17T05:01:24.535Z,6
2022-10-17T05:02:24.549Z,4
2022-10-17T05:06:24.550Z,11
2022-10-17T05:07:24.551Z,9
2022-10-17T05:08:24.537Z,6
2022-10-17T05:09:24.538Z,11
2022-10-17T05:10:24.551Z,10
2022-10-17T05:11:24.552Z,11
2022-10-17T05:12:24.538Z,15
2022-10-17T05:13:24.539Z,14
2022-10-17T05:14:24.552Z,12
2022-10-17T05:15:24.553Z,11
2022-10-17T05:16:24.539Z,8
2022-10-17T05:17:24.603Z,13
2022-10-17T05:18:24.553Z,9
2022-10-17T05:19:24.553Z,9
2022-10-17T05:20:24.540Z,11
2022-10-17T05:21:24.554Z,8
2022-10-17T05:22:24.554Z,8
2022-10-17T05:23:24.554Z,11
2022-10-17T05:24:24.542Z,14
2022-10-17T05:25:24.555Z,13
2022-10-17T05:26:24.556Z,10
2022-10-17T05:27:24.555Z,13
2022-10-17T05:28:24.543Z,13
2022-10-17T05:29:24.606Z,3
2022-10-17T05:30:24.557Z,10
2022-10-17T05:31:24.543Z,9
2022-10-17T05:32:24.544Z,10
2022-10-17T05:33:24.557Z,12
2022-10-17T05:34:24.558Z,7
2022-10-17T05:35:24.544Z,5
2022-10-17T05:36:24.558Z,7
2022-10-17T05:37:24.558Z,9
2022-10-17T05:38:24.558Z,10
2022-10-17T05:39:24.546Z,11
2022-10-17T05:40:24.559Z,9
2022-10-17T05:41:24.612Z,9
2022-10-17T05:42:24.559Z,12
2022-10-17T05:43:24.547Z,8
2022-10-17T05:44:24.560Z,12
2022-10-17T05:45:24.561Z,12
2022-10-17T05:46:24.560Z,10
2022-10-17T05:47:24.548Z,12
2022-10-17T05:48:24.561Z,10
2022-10-17T05:49:24.562Z,11
2022-10-17T05:50:24.548Z,10
2022-10-17T05:51:24.549Z,11
2022-10-17T05:52:24.562Z,8
2022-10-17T05:53:24.563Z,9
2022-10-17T05:54:24.549Z,12
2022-10-17T05:55:24.613Z,8
2022-10-17T05:56:24.563Z,20
2022-10-17T05:57:24.563Z,7
2022-10-17T05:58:24.550Z,12
2022-10-17T05:59:24.564Z,9
2022-10-17T06:00:24.564Z,12
2022-10-17T06:01:24.564Z,12
2022-10-17T06:02:24.551Z,11
2022-10-17T06:03:24.565Z,9
2022-10-17T06:04:24.566Z,8
2022-10-17T06:05:24.565Z,11
2022-10-17T06:06:24.553Z,11
2022-10-17T06:07:24.607Z,12
2022-10-17T06:08:24.567Z,10
2022-10-17T06:09:24.553Z,12
2022-10-17T06:10:24.554Z,17
2022-10-17T06:11:24.567Z,7
2022-10-17T06:12:24.568Z,11
2022-10-17T06:13:24.554Z,6
2022-10-17T06:14:24.568Z,6
2022-10-17T06:15:24.568Z,10
2022-10-17T06:16:24.568Z,9
2022-10-17T06:17:24.555Z,6
2022-10-17T06:18:24.569Z,10
2022-10-17T06:19:24.613Z,7
2022-10-17T06:20:24.569Z,9
2022-10-17T06:21:24.556Z,7
2022-10-17T06:22:24.570Z,8
2022-10-17T06:23:24.571Z,7
2022-10-17T06:24:24.570Z,14
2022-10-17T06:25:24.558Z,13
2022-10-17T06:26:24.571Z,12
2022-10-17T06:27:24.572Z,10
2022-10-17T06:28:24.558Z,11
2022-10-17T06:29:24.559Z,8
2022-10-17T06:30:24.572Z,11
2022-10-17T06:31:24.613Z,10
2022-10-17T06:32:24.559Z,13
2022-10-17T06:33:24.573Z,11
2022-10-17T06:34:24.573Z,9
2022-10-17T06:35:24.573Z,17
2022-10-17T06:36:24.560Z,13
2022-10-17T06:37:24.574Z,8
2022-10-17T06:38:24.574Z,9
2022-10-17T06:39:24.574Z,10
2022-10-17T06:40:24.561Z,11
2022-10-17T06:41:24.575Z,12
2022-10-17T06:42:24.576Z,12
2022-10-17T06:43:24.562Z,11
2022-10-17T06:44:24.563Z,9
2022-10-17T06:45:24.576Z,10
2022-10-17T06:46:24.577Z,14
2022-10-17T06:47:24.563Z,13
2022-10-17T06:48:24.564Z,10
2022-10-17T06:49:24.577Z,10
2022-10-17T06:50:24.578Z,9
2022-10-17T06:51:24.564Z,10
2022-10-17T06:52:24.578Z,12
2022-10-17T06:53:24.578Z,11
2022-10-17T06:54:24.578Z,10
2022-10-17T06:55:24.565Z,6
2022-10-17T06:56:24.579Z,10
2022-10-17T06:57:24.585Z,10
2022-10-17T06:58:24.579Z,11
2022-10-17T06:59:24.567Z,10
2022-10-17T07:00:24.580Z,8
2022-10-17T07:01:24.581Z,7
2022-10-17T07:02:24.580Z,10
2022-10-17T07:03:24.568Z,11
2022-10-17T07:04:24.581Z,10
2022-10-17T07:05:24.582Z,13
2022-10-17T07:06:24.569Z,10
2022-10-17T07:07:24.569Z,10
2022-10-17T07:08:24.582Z,11
2022-10-17T07:09:24.624Z,12
2022-10-17T07:10:24.570Z,10
2022-10-17T07:11:24.583Z,12
2022-10-17T07:12:24.584Z,11
2022-10-17T07:13:24.584Z,9
2022-10-17T07:14:24.571Z,13
2022-10-17T07:15:24.584Z,11
2022-10-17T07:16:24.586Z,9
2022-10-17T07:17:24.585Z,13
2022-10-17T07:18:24.572Z,8
2022-10-17T07:19:24.586Z,11
2022-10-17T07:20:24.587Z,11
2022-10-17T07:21:24.574Z,11
2022-10-17T07:22:24.574Z,5
2022-10-17T07:23:24.587Z,13
2022-10-17T07:24:24.588Z,8
2022-10-17T07:25:24.575Z,11
2022-10-17T07:26:24.576Z,14
2022-10-17T07:27:24.589Z,11
2022-10-17T07:28:24.590Z,12
2022-10-17T07:29:24.577Z,13
2022-10-17T07:30:24.590Z,15
2022-10-17T07:31:24.591Z,10
2022-10-17T07:32:24.591Z,10
2022-10-17T07:33:24.579Z,10
2022-10-17T07:34:24.592Z,10
2022-10-17T07:35:24.594Z,11
2022-10-17T07:36:24.593Z,6
2022-10-17T07:37:24.581Z,11
2022-10-17T07:38:24.594Z,15
2022-10-17T07:39:24.595Z,9
2022-10-17T07:40:24.582Z,6
2022-10-17T07:41:24.583Z,11
2022-10-17T07:42:24.596Z,9
2022-10-17T07:43:24.597Z,8
2022-10-17T07:44:24.584Z,9
2022-10-17T07:45:24.585Z,10
2022-10-17T07:46:24.598Z,16
2022-10-17T07:47:24.599Z,11
2022-10-17T07:48:24.586Z,8
2022-10-17T07:49:24.600Z,13
2022-10-17T07:50:24.601Z,10
2022-10-17T07:51:24.601Z,9
2022-10-17T07:52:24.588Z,10
2022-10-17T07:53:24.602Z,8
2022-10-17T07:54:24.630Z,4
2022-10-17T07:55:24.603Z,13
2022-10-17T07:56:24.590Z,11
2022-10-17T07:57:24.604Z,11
2022-10-17T07:58:24.605Z,10
2022-10-17T07:59:24.605Z,15
2022-10-17T08:00:24.592Z,10
2022-10-17T08:01:24.606Z,9
2022-10-17T08:02:24.607Z,11
2022-10-17T08:03:24.593Z,9
2022-10-17T08:04:24.594Z,13
2022-10-17T08:05:24.607Z,14
2022-10-17T08:06:24.672Z,15
2022-10-17T08:07:24.595Z,15
2022-10-17T08:08:24.609Z,11
2022-10-17T08:09:24.609Z,7
2022-10-17T08:10:24.610Z,13
2022-10-17T08:11:24.597Z,13
2022-10-17T08:12:24.611Z,10
2022-10-17T08:14:24.612Z,11
2022-10-17T08:15:24.599Z,10
2022-10-17T08:16:24.613Z,13
2022-10-17T08:17:24.614Z,10
2022-10-17T08:18:24.626Z,8
2022-10-17T08:19:24.601Z,10
2022-10-17T08:20:24.615Z,8
2022-10-17T08:21:24.616Z,12
2022-10-17T08:22:24.603Z,8
2022-10-17T08:23:24.603Z,8
2022-10-17T08:24:24.617Z,8
2022-10-17T08:25:24.618Z,8
2022-10-17T08:26:24.605Z,10
2022-10-17T08:27:24.619Z,9
2022-10-17T08:28:24.619Z,8
2022-10-17T08:29:24.620Z,9
2022-10-17T08:30:24.620Z,6
2022-10-17T08:31:24.621Z,10
2022-10-17T08:32:24.622Z,12
2022-10-17T08:33:24.622Z,8
2022-10-17T08:34:24.610Z,7
2022-10-17T08:35:24.623Z,3
2022-10-17T08:36:24.625Z,8
2022-10-17T08:37:24.611Z,4
2022-10-17T08:38:24.612Z,7
2022-10-17T08:39:24.626Z,6
2022-10-17T08:40:24.627Z,8
2022-10-17T08:41:24.614Z,8
2022-10-17T08:42:24.614Z,11
2022-10-17T08:43:24.628Z,9
2022-10-17T08:44:24.629Z,8
2022-10-17T08:45:24.616Z,14
2022-10-17T08:46:24.630Z,9
2022-10-17T08:47:24.631Z,9
2022-10-17T08:48:24.631Z,9
2022-10-17T08:49:24.619Z,8
2022-10-17T08:50:24.632Z,9
2022-10-17T08:51:24.633Z,6
2022-10-17T08:52:24.633Z,6
2022-10-17T08:53:24.621Z,5
2022-10-17T08:54:24.635Z,7
2022-10-17T08:55:24.636Z,7
2022-10-17T08:56:24.623Z,7
2022-10-17T08:57:24.623Z,9
2022-10-17T08:58:24.637Z,7
2022-10-17T08:59:24.638Z,5
2022-10-17T09:00:24.625Z,7
2022-10-17T09:01:24.626Z,10
2022-10-17T09:02:24.640Z,8
2022-10-17T09:03:24.640Z,11
2022-10-17T09:04:24.628Z,9
2022-10-17T09:05:24.642Z,4
2022-10-17T09:06:24.642Z,5
2022-10-17T09:07:24.642Z,8
2022-10-17T09:08:24.630Z,5
2022-10-17T09:09:24.644Z,10
2022-10-17T09:10:24.645Z,7
2022-10-17T09:11:24.645Z,7
2022-10-17T09:12:24.632Z,8
2022-10-17T09:13:24.646Z,8
2022-10-17T09:14:24.648Z,7
2022-10-17T09:15:24.657Z,9
2022-10-17T09:16:24.635Z,10
2022-10-17T09:17:24.648Z,11
2022-10-17T09:18:24.650Z,7
2022-10-17T09:19:24.637Z,10
2022-10-17T09:20:24.637Z,8
2022-10-17T09:21:24.651Z,8
2022-10-17T09:22:24.652Z,6
2022-10-17T09:23:24.639Z,10
2022-10-17T09:24:24.653Z,7
2022-10-17T09:25:24.653Z,12
2022-10-17T09:26:24.654Z,9
2022-10-17T09:27:24.654Z,8
2022-10-17T09:28:24.655Z,7
2022-10-17T09:29:24.657Z,5
2022-10-17T09:30:24.656Z,6
2022-10-17T09:31:24.644Z,5
2022-10-17T09:32:24.658Z,7
2022-10-17T09:33:24.659Z,7
2022-10-17T09:34:24.646Z,7
2022-10-17T09:36:24.660Z,10
2022-10-17T09:37:24.661Z,8
2022-10-17T09:38:24.648Z,4
2022-10-17T09:39:24.664Z,6
2022-10-17T09:40:24.663Z,8
2022-10-17T09:41:24.663Z,5
2022-10-17T09:42:24.651Z,8
2022-10-17T09:43:24.665Z,6
2022-10-17T09:44:24.665Z,4
2022-10-17T09:45:24.666Z,7
2022-10-17T09:46:24.653Z,8
2022-10-17T09:47:24.667Z,9
2022-10-17T09:48:24.668Z,9
2022-10-17T09:49:24.668Z,8
2022-10-17T09:50:24.656Z,7
2022-10-17T09:51:24.669Z,4
2022-10-17T09:52:24.670Z,5
2022-10-17T09:53:24.657Z,12
2022-10-17T09:54:24.658Z,7
2022-10-17T09:55:24.672Z,3
2022-10-17T09:56:24.673Z,1
2022-10-17T09:57:24.660Z,4
2022-10-17T09:58:24.715Z,5
2022-10-17T09:59:24.674Z,3
2022-10-17T10:00:30.784Z,3
2022-10-17T10:01:24.662Z,3
2022-10-17T10:02:24.676Z,2
2022-10-17T10:03:24.676Z,5
2022-10-17T10:04:24.677Z,1
2022-10-17T10:05:24.665Z,0
2022-10-17T10:06:24.678Z,2
2022-10-17T10:07:24.680Z,2
2022-10-17T10:08:24.679Z,0
2022-10-17T10:09:24.667Z,2
2022-10-17T10:10:24.681Z,1
2022-10-17T10:11:24.682Z,0
2022-10-17T10:12:24.669Z,0
2022-10-17T10:13:24.669Z,2
2022-10-17T10:14:24.683Z,0
2022-10-17T10:15:24.684Z,1
2022-10-17T10:16:24.671Z,1
2022-10-17T10:17:24.672Z,0
2022-10-17T10:18:24.685Z,0
2022-10-17T10:19:24.686Z,0
2022-10-17T10:20:24.673Z,1
2022-10-17T10:21:24.687Z,1
2022-10-17T10:22:24.688Z,1
2022-10-17T10:23:24.688Z,1
2022-10-17T10:24:24.676Z,1
2022-10-17T10:25:24.690Z,1
2022-10-17T10:26:24.691Z,2
2022-10-17T10:27:24.691Z,4
2022-10-17T10:28:24.678Z,11
2022-10-17T10:29:24.692Z,9
2022-10-17T10:30:24.694Z,10
2022-10-17T10:31:24.680Z,10
2022-10-17T10:32:24.681Z,5
2022-10-17T10:33:24.694Z,9
2022-10-17T10:34:24.696Z,10
2022-10-17T10:35:24.683Z,8
2022-10-17T10:36:24.746Z,7
2022-10-17T10:37:24.697Z,10
2022-10-17T10:38:24.698Z,5
2022-10-17T10:39:24.685Z,6
2022-10-17T10:40:24.699Z,6
2022-10-17T10:41:24.700Z,1
2022-10-17T10:42:24.700Z,1
2022-10-17T10:43:24.688Z,1
2022-10-17T10:44:24.702Z,2
2022-10-17T10:45:24.703Z,7
2022-10-17T10:46:24.703Z,7
2022-10-17T10:47:24.690Z,1
2022-10-17T10:48:24.704Z,3
2022-10-17T10:49:24.705Z,3
2022-10-17T10:50:24.692Z,2
2022-10-17T10:51:24.692Z,0
2022-10-17T10:52:24.706Z,3
2022-10-17T10:53:24.707Z,2
2022-10-17T10:54:24.694Z,1
2022-10-17T10:55:24.695Z,6
2022-10-17T10:56:24.709Z,4
2022-10-17T10:57:24.709Z,6
2022-10-17T10:58:24.697Z,3
2022-10-17T10:59:24.710Z,7
2022-10-17T11:00:28.422Z,4
2022-10-17T11:01:24.712Z,6
2022-10-17T11:02:24.699Z,2
2022-10-17T11:03:24.713Z,3
2022-10-17T11:04:24.759Z,4
2022-10-17T11:05:24.714Z,3
2022-10-17T11:06:24.702Z,2
2022-10-17T11:07:24.715Z,3
2022-10-17T11:08:24.717Z,1
2022-10-17T11:09:24.716Z,1
2022-10-17T11:10:24.704Z,4
2022-10-17T11:11:24.718Z,1
2022-10-17T11:12:24.719Z,1
2022-10-17T11:13:24.706Z,1
2022-10-17T11:14:24.706Z,1
2022-10-17T11:15:24.720Z,1
2022-10-17T11:16:24.722Z,1
2022-10-17T11:17:24.708Z,1
2022-10-17T11:18:24.722Z,2
2022-10-17T11:19:24.723Z,1
2022-10-17T11:20:24.723Z,3
2022-10-17T11:21:24.711Z,0
2022-10-17T11:22:24.724Z,3
2022-10-17T11:23:24.770Z,0
2022-10-17T11:24:24.725Z,3
2022-10-17T11:25:24.713Z,0
2022-10-17T11:26:24.727Z,2
2022-10-17T11:27:24.728Z,6
2022-10-17T11:28:24.728Z,7
2022-10-17T11:29:24.715Z,2
2022-10-17T11:30:24.729Z,7
2022-10-17T11:31:24.730Z,4
2022-10-17T11:32:24.717Z,2
2022-10-17T11:33:24.718Z,4
2022-10-17T11:34:24.732Z,1
2022-10-17T11:35:24.758Z,1
2022-10-17T11:36:24.720Z,4
2022-10-17T11:37:24.734Z,1
2022-10-17T11:38:24.734Z,0
2022-10-17T11:39:24.735Z,0
2022-10-17T11:40:24.722Z,2
2022-10-17T11:41:24.736Z,3
2022-10-17T11:42:24.737Z,2
2022-10-17T11:43:24.737Z,6
2022-10-17T11:44:24.725Z,3
2022-10-17T11:45:24.738Z,5
2022-10-17T11:46:24.740Z,8
2022-10-17T11:47:24.739Z,3
2022-10-17T11:48:24.727Z,8
2022-10-17T11:49:24.741Z,5
2022-10-17T11:50:24.742Z,7
2022-10-17T11:51:24.729Z,9
2022-10-17T11:52:24.729Z,5
2022-10-17T11:53:24.743Z,7
2022-10-17T11:54:24.745Z,13
2022-10-17T11:55:24.731Z,9
2022-10-17T11:56:24.745Z,6
2022-10-17T11:57:24.746Z,1
2022-10-17T11:58:24.746Z,3
2022-10-17T11:59:24.734Z,1
2022-10-17T12:00:24.747Z,0
2022-10-17T12:01:24.775Z,0
2022-10-17T12:02:24.749Z,1
2022-10-17T12:03:24.736Z,0
2022-10-17T12:04:24.750Z,1
2022-10-17T12:05:24.751Z,2
2022-10-17T12:06:24.751Z,3
2022-10-17T12:07:24.739Z,3
2022-10-17T12:08:24.752Z,2
2022-10-17T12:09:24.754Z,1
2022-10-17T12:10:24.740Z,3
2022-10-17T12:11:24.741Z,7
2022-10-17T12:12:24.755Z,6
2022-10-17T12:13:24.757Z,6
2022-10-17T12:14:24.743Z,8
2022-10-17T12:15:24.807Z,3
2022-10-17T12:16:24.757Z,5
2022-10-17T12:17:24.758Z,7
2022-10-17T12:18:24.745Z,2
2022-10-17T12:19:24.759Z,6
2022-10-17T12:20:24.760Z,8
2022-10-17T12:21:24.760Z,5
2022-10-17T12:22:24.748Z,6
2022-10-17T12:23:24.762Z,4
2022-10-17T12:24:24.763Z,10
2022-10-17T12:25:24.763Z,7
2022-10-17T12:26:24.750Z,6
2022-10-17T12:27:24.764Z,4
2022-10-17T12:28:24.765Z,6
2022-10-17T12:29:24.752Z,5
2022-10-17T12:30:24.753Z,8
2022-10-17T12:31:24.767Z,9
2022-10-17T12:32:24.768Z,11
2022-10-17T12:33:24.755Z,11
2022-10-17T12:34:24.810Z,9
2022-10-17T12:35:24.769Z,7
2022-10-17T12:36:24.770Z,5
2022-10-17T12:37:24.757Z,7
2022-10-17T12:38:24.771Z,5
2022-10-17T12:39:24.771Z,7
2022-10-17T12:40:24.772Z,6
2022-10-17T12:41:24.760Z,9
2022-10-17T12:42:24.773Z,6
2022-10-17T12:43:24.775Z,6
2022-10-17T12:44:24.775Z,8
2022-10-17T12:45:24.762Z,7
2022-10-17T12:46:24.777Z,7
2022-10-17T12:47:24.777Z,8
2022-10-17T12:48:24.764Z,6
2022-10-17T12:49:24.765Z,10
2022-10-17T12:50:24.778Z,7
2022-10-17T12:51:24.780Z,10
2022-10-17T12:52:24.766Z,8
2022-10-17T12:53:24.780Z,3
2022-10-17T12:54:24.781Z,8
2022-10-17T12:55:24.781Z,9
2022-10-17T12:56:24.769Z,14
2022-10-17T12:57:24.782Z,7
2022-10-17T12:58:24.784Z,10
2022-10-17T12:59:24.784Z,9
2022-10-17T13:00:24.771Z,5
2022-10-17T13:01:24.785Z,8
2022-10-17T13:02:24.786Z,8
2022-10-17T13:03:24.773Z,7
2022-10-17T13:04:24.773Z,11
2022-10-17T13:05:24.787Z,12
2022-10-17T13:06:24.788Z,9
2022-10-17T13:07:24.775Z,7
2022-10-17T13:08:24.776Z,9
2022-10-17T13:09:24.790Z,7
2022-10-17T13:10:24.831Z,9
2022-10-17T13:11:24.777Z,8
2022-10-17T13:12:24.791Z,4
2022-10-17T13:13:24.792Z,9
2022-10-17T13:14:24.792Z,9
2022-10-17T13:15:24.780Z,10
2022-10-17T13:16:24.794Z,8
2022-10-17T13:17:24.795Z,10
2022-10-17T13:18:24.795Z,8
2022-10-17T13:19:24.782Z,7
2022-10-17T13:20:24.796Z,12
2022-10-17T13:21:24.797Z,11
2022-10-17T13:22:24.784Z,8
2022-10-17T13:23:24.784Z,10
2022-10-17T13:24:24.798Z,9
2022-10-17T13:25:24.799Z,11
2022-10-17T13:26:24.786Z,13
2022-10-17T13:27:24.787Z,7
2022-10-17T13:28:24.800Z,8
2022-10-17T13:29:24.801Z,8
2022-10-17T13:30:24.788Z,11
2022-10-17T13:31:24.802Z,11
2022-10-17T13:32:24.803Z,8
2022-10-17T13:33:24.803Z,8
2022-10-17T13:34:24.791Z,9
2022-10-17T13:35:24.805Z,15
2022-10-17T13:36:24.806Z,11
2022-10-17T13:37:24.806Z,6
2022-10-17T13:38:24.793Z,10
2022-10-17T13:39:24.807Z,13
2022-10-17T13:40:24.808Z,15
2022-10-17T13:41:24.795Z,11
2022-10-17T13:42:24.795Z,8
2022-10-17T13:43:24.809Z,9
2022-10-17T13:44:24.810Z,6
2022-10-17T13:45:24.797Z,12
2022-10-17T13:46:24.875Z,6
2022-10-17T13:47:24.811Z,8
2022-10-17T13:48:24.812Z,7
2022-10-17T13:49:24.800Z,7
2022-10-17T13:50:24.813Z,8
2022-10-17T13:51:24.814Z,8
2022-10-17T13:52:24.814Z,11
2022-10-17T13:53:24.802Z,6
2022-10-17T13:54:24.816Z,8
2022-10-17T13:55:24.817Z,10
2022-10-17T13:56:24.817Z,12
2022-10-17T13:57:24.804Z,11
2022-10-17T13:58:24.868Z,6
2022-10-17T13:59:24.819Z,8
2022-10-17T14:00:24.806Z,13
2022-10-17T14:01:24.807Z,8
2022-10-17T14:02:24.820Z,10
2022-10-17T14:03:24.821Z,10
2022-10-17T14:04:24.808Z,4
2022-10-17T14:05:24.886Z,8
2022-10-17T14:06:24.823Z,7
2022-10-17T14:07:24.823Z,8
2022-10-17T14:08:24.811Z,7
2022-10-17T14:09:24.824Z,6
2022-10-17T14:10:24.825Z,11
2022-10-17T14:11:24.826Z,8
2022-10-17T14:12:24.813Z,13
2022-10-17T14:13:24.827Z,11
2022-10-17T14:14:24.833Z,5
2022-10-17T14:15:24.828Z,7
2022-10-17T14:16:24.815Z,8
2022-10-17T14:17:24.829Z,12
2022-10-17T14:18:24.830Z,9
2022-10-17T14:19:24.830Z,7
2022-10-17T14:20:24.818Z,15
2022-10-17T14:21:24.831Z,12
2022-10-17T14:22:24.832Z,13
2022-10-17T14:23:24.819Z,13
2022-10-17T14:24:24.820Z,13
2022-10-17T14:25:24.834Z,11
2022-10-17T14:26:24.860Z,16
2022-10-17T14:27:24.822Z,13
2022-10-17T14:28:24.835Z,22
2022-10-17T14:29:24.836Z,11
2022-10-17T14:30:24.837Z,12
2022-10-17T14:31:24.824Z,7
2022-10-17T14:32:24.838Z,15
2022-10-17T14:33:24.839Z,8
2022-10-17T14:34:24.839Z,16
2022-10-17T14:35:24.826Z,12
2022-10-17T14:36:24.840Z,15
2022-10-17T14:37:24.841Z,16
2022-10-17T14:38:24.828Z,18
2022-10-17T14:39:24.828Z,12